Time;durP1;ratioP1;P1;durP2;ratioP2;P2;SDS_P1;SDS_P2;PMS_P1;PMS_P2;Temp;Humidity;BMP_temperature;BMP_pressure;BME280_temperature;BME280_humidity;BME280_pressure;Samples;Min_cycle;Max_cycle;Signal;HPM_P1;HPM_P2
2023/08/13 00:02:15;;;;;;;9.30;5.50;;;;;;;18.60;68.95;100807.50;105877;1261;98088;-83
2023/08/13 00:05:02;;;;;;;11.30;5.20;;;;;;;18.57;68.95;100806.66;105791;1260;98494;-83
2023/08/13 00:07:48;;;;;;;14.50;6.30;;;;;;;18.56;69.46;100805.48;105957;1259;101378;-83
2023/08/13 00:10:34;;;;;;;9.50;4.80;;;;;;;18.58;69.69;100799.15;105827;1260;99254;-83
2023/08/13 00:13:19;;;;;;;7.90;5.00;;;;;;;18.57;69.88;100797.02;105775;1261;97954;-82
2023/08/13 00:16:07;;;;;;;7.60;4.40;;;;;;;18.58;70.25;100799.44;105705;1266;98448;-83
2023/08/13 00:18:53;;;;;;;11.40;4.60;;;;;;;18.59;70.54;100803.68;105772;1266;97962;-85
2023/08/13 00:21:38;;;;;;;9.20;4.70;;;;;;;18.58;71.02;100807.40;105749;1264;101471;-84
2023/08/13 00:24:24;;;;;;;7.50;4.90;;;;;;;18.57;71.02;100808.08;105763;1260;99159;-85
2023/08/13 00:27:09;;;;;;;7.80;4.20;;;;;;;18.57;71.27;100807.92;105881;1268;99216;-83
2023/08/13 00:29:55;;;;;;;6.80;4.40;;;;;;;18.55;71.66;100805.82;105860;1260;98128;-85
2023/08/13 00:32:41;;;;;;;8.00;5.00;;;;;;;18.54;71.92;100803.21;105730;1267;98595;-85
2023/08/13 00:35:27;;;;;;;9.00;5.20;;;;;;;18.52;72.06;100798.90;105921;1260;102637;-84
2023/08/13 00:38:13;;;;;;;13.10;5.50;;;;;;;18.51;72.04;100794.75;105769;1261;109058;-86
2023/08/13 00:40:59;;;;;;;9.40;5.10;;;;;;;18.48;72.23;100795.88;105870;1264;97957;-85
2023/08/13 00:43:44;;;;;;;8.80;5.30;;;;;;;18.47;72.13;100796.82;105845;1260;97882;-84
2023/08/13 00:46:30;;;;;;;11.40;4.70;;;;;;;18.46;72.44;100796.73;105887;1259;98251;-85
2023/08/13 00:49:16;;;;;;;8.70;5.00;;;;;;;18.44;72.17;100788.00;105944;1261;101469;-84
2023/08/13 00:52:02;;;;;;;7.10;5.00;;;;;;;18.43;72.36;100787.05;105963;1265;100497;-85
2023/08/13 00:54:48;;;;;;;12.60;4.80;;;;;;;18.42;72.81;100786.69;105819;1261;97973;-84
2023/08/13 00:57:34;;;;;;;8.30;4.80;;;;;;;18.40;72.80;100788.74;106011;1261;97884;-83
2023/08/13 01:00:19;;;;;;;10.00;4.90;;;;;;;18.38;73.16;100787.23;105862;1264;98484;-86
2023/08/13 01:03:07;;;;;;;10.60;5.50;;;;;;;18.37;73.03;100784.71;105841;1259;103066;-85
2023/08/13 01:06:32;;;;;;;8.70;4.90;;;;;;;18.35;72.82;100782.11;105757;1259;99099;-83
2023/08/13 01:09:47;;;;;;;10.40;5.50;;;;;;;18.34;73.20;100784.85;105866;1263;97956;-83
2023/08/13 01:12:53;;;;;;;7.60;4.70;;;;;;;18.33;73.44;100779.89;105707;1266;97930;-83
2023/08/13 01:15:44;;;;;;;7.10;5.00;;;;;;;18.33;73.92;100771.80;105843;1260;97993;-84
2023/08/13 01:18:30;;;;;;;9.20;5.00;;;;;;;18.33;73.97;100773.98;106029;1259;102725;-83
2023/08/13 01:21:15;;;;;;;9.00;5.40;;;;;;;18.32;73.84;100772.27;105762;1264;99112;-83
2023/08/13 01:24:00;;;;;;;9.80;4.90;;;;;;;18.32;73.88;100767.81;105714;1260;98786;-83
2023/08/13 01:27:22;;;;;;;8.70;5.20;;;;;;;18.32;73.92;100768.73;105784;1261;98056;-84
2023/08/13 01:30:13;;;;;;;;;;;;;;;18.31;74.17;100771.27;105663;1260;97989;-84
2023/08/13 01:33:02;;;;;;;8.40;5.10;;;;;;;18.29;73.85;100771.02;105690;1259;101427;-84
2023/08/13 01:35:49;;;;;;;7.20;5.10;;;;;;;18.30;74.06;100772.17;105848;1259;99098;-83
2023/08/13 01:38:36;;;;;;;8.50;5.00;;;;;;;18.31;74.26;100773.70;105824;1261;97782;-84
2023/08/13 01:41:23;;;;;;;6.40;5.00;;;;;;;18.31;74.24;100771.88;105891;1268;98035;-84
2023/08/13 01:44:09;;;;;;;7.90;4.90;;;;;;;18.32;74.16;100769.24;105899;1259;99132;-84
2023/08/13 01:46:54;;;;;;;8.80;4.60;;;;;;;18.33;73.94;100763.08;105965;1262;101406;-84
2023/08/13 01:49:39;;;;;;;10.60;5.10;;;;;;;18.34;74.30;100762.18;105814;1260;99107;-83
2023/08/13 01:52:25;;;;;;;7.00;4.90;;;;;;;18.35;74.55;100758.13;106020;1260;99209;-83
2023/08/13 01:55:11;;;;;;;9.40;5.40;;;;;;;18.35;74.26;100757.81;105799;1259;97957;-84
2023/08/13 01:57:57;;;;;;;9.50;5.50;;;;;;;18.37;74.11;100752.04;105824;1261;98506;-84
2023/08/13 02:00:43;;;;;;;10.40;5.30;;;;;;;18.37;74.17;100747.73;105840;1266;101427;-85
2023/08/13 02:03:29;;;;;;;10.20;5.60;;;;;;;18.37;73.80;100747.91;105888;1261;99166;-84
2023/08/13 02:06:15;;;;;;;8.70;4.40;;;;;;;18.39;73.58;100743.21;105873;1265;97893;-84
2023/08/13 02:09:02;;;;;;;7.60;4.70;;;;;;;18.40;73.66;100742.07;105806;1261;97961;-85
2023/08/13 02:11:47;;;;;;;7.30;4.40;;;;;;;18.41;73.38;100747.30;105882;1260;98055;-83
2023/08/13 02:14:32;;;;;;;7.70;4.60;;;;;;;18.42;73.38;100743.83;106294;1263;101399;-83
2023/08/13 02:17:18;;;;;;;6.70;4.40;;;;;;;18.42;73.46;100743.52;106225;1264;101494;-82
2023/08/13 02:20:05;;;;;;;8.30;4.40;;;;;;;18.42;73.49;100737.86;106014;1263;97926;-83
2023/08/13 02:22:51;;;;;;;8.60;4.50;;;;;;;18.41;73.19;100736.91;106124;1263;97891;-83
2023/08/13 02:25:36;;;;;;;7.60;5.20;;;;;;;18.38;73.32;100733.42;105875;1260;98534;-83
2023/08/13 02:28:22;;;;;;;10.90;6.60;;;;;;;18.34;73.49;100730.48;105665;1259;102258;-83
2023/08/13 02:31:07;;;;;;;8.10;6.00;;;;;;;18.32;73.31;100729.91;105753;1259;99178;-84
2023/08/13 02:33:52;;;;;;;10.00;6.00;;;;;;;18.31;73.33;100731.73;105743;1263;98136;-84
2023/08/13 02:36:40;;;;;;;7.10;5.40;;;;;;;18.29;73.47;100730.64;106080;1260;97909;-84
2023/08/13 02:39:25;;;;;;;8.50;5.00;;;;;;;18.28;73.54;100734.41;105818;1259;98820;-84
2023/08/13 02:42:11;;;;;;;7.10;4.70;;;;;;;18.26;73.84;100738.48;105872;1265;102670;-83
2023/08/13 02:44:56;;;;;;;8.30;5.10;;;;;;;18.23;73.87;100741.80;105829;1266;100169;-83
2023/08/13 02:47:41;;;;;;;9.40;5.10;;;;;;;18.22;73.82;100736.23;105711;1260;98558;-84
2023/08/13 02:50:27;;;;;;;5.40;4.80;;;;;;;18.20;74.04;100732.27;105892;1260;97956;-85
2023/08/13 02:53:12;;;;;;;8.30;5.00;;;;;;;18.15;74.62;100731.42;105958;1259;99641;-84
2023/08/13 02:55:58;;;;;;;8.70;5.60;;;;;;;18.11;74.77;100740.08;105856;1259;102054;-85
2023/08/13 02:58:44;;;;;;;7.30;4.90;;;;;;;18.10;74.89;100735.36;105780;1264;100493;-83
2023/08/13 03:01:29;;;;;;;9.20;5.70;;;;;;;18.08;75.03;100730.55;105842;1267;98213;-84
2023/08/13 03:04:15;;;;;;;9.90;4.90;;;;;;;18.07;75.40;100731.34;105852;1259;98060;-85
2023/08/13 03:07:01;;;;;;;8.20;4.80;;;;;;;18.07;75.27;100725.37;105930;1261;98504;-86
2023/08/13 03:09:46;;;;;;;9.50;5.10;;;;;;;18.09;75.29;100723.09;105800;1260;102710;-83
2023/08/13 03:12:32;;;;;;;6.80;4.90;;;;;;;18.10;75.40;100720.54;105867;1260;100450;-84
2023/08/13 03:15:18;;;;;;;8.30;5.20;;;;;;;18.12;75.48;100722.41;105653;1259;99075;-84
2023/08/13 03:18:04;;;;;;;6.50;5.10;;;;;;;18.12;75.51;100731.59;105894;1259;98212;-83
2023/08/13 03:20:50;;;;;;;7.40;5.20;;;;;;;18.13;75.62;100727.75;105851;1259;97951;-84
2023/08/13 03:23:36;;;;;;;13.40;6.50;;;;;;;18.15;75.59;100729.00;106016;1264;102699;-84
2023/08/13 03:26:22;;;;;;;7.00;4.90;;;;;;;18.18;75.74;100728.23;105731;1260;99425;-84
2023/08/13 03:29:07;;;;;;;9.00;5.30;;;;;;;18.20;75.72;100728.04;105923;1261;99072;-85
2023/08/13 03:31:54;;;;;;;7.50;5.20;;;;;;;18.20;76.04;100731.98;105937;1264;97866;-83
2023/08/13 03:34:41;;;;;;;10.70;5.80;;;;;;;18.19;76.30;100734.85;105800;1259;97980;-83
2023/08/13 03:37:28;;;;;;;8.30;6.20;;;;;;;18.19;76.45;100733.48;105828;1264;102158;-84
2023/08/13 03:40:14;;;;;;;7.00;5.20;;;;;;;18.19;76.61;100733.44;105843;1264;99755;-83
2023/08/13 03:43:04;;;;;;;10.30;5.70;;;;;;;18.21;76.73;100729.91;105782;1266;98132;-83
2023/08/13 03:45:50;;;;;;;10.10;5.90;;;;;;;18.23;76.90;100733.60;105911;1259;97991;-83
2023/08/13 03:48:36;;;;;;;6.10;4.90;;;;;;;18.26;76.83;100732.82;105879;1260;98446;-84
2023/08/13 03:51:22;;;;;;;7.50;5.30;;;;;;;18.29;76.93;100732.56;105805;1260;101432;-84
2023/08/13 03:54:08;;;;;;;10.50;5.30;;;;;;;18.31;77.32;100728.86;105864;1260;100478;-84
2023/08/13 03:56:54;;;;;;;9.30;4.90;;;;;;;18.33;77.25;100728.40;105746;1263;98972;-85
2023/08/13 03:59:40;;;;;;;7.50;5.10;;;;;;;18.36;77.48;100724.69;105864;1259;97980;-84
2023/08/13 04:02:32;;;;;;;6.80;5.00;;;;;;;18.38;77.81;100720.20;105840;1260;98040;-85
2023/08/13 04:05:18;;;;;;;7.80;6.30;;;;;;;18.40;78.05;100724.20;105877;1259;101439;-84
2023/08/13 04:08:05;;;;;;;10.10;6.30;;;;;;;18.40;77.83;100724.96;105820;1264;100447;-85
2023/08/13 04:10:51;;;;;;;8.80;5.70;;;;;;;18.41;77.69;100718.64;105811;1262;98255;-85
2023/08/13 04:13:37;;;;;;;8.10;5.80;;;;;;;18.43;77.79;100715.77;105812;1261;97918;-84
2023/08/13 04:16:23;;;;;;;8.60;5.30;;;;;;;18.46;77.83;100709.36;105729;1265;98431;-84
2023/08/13 04:19:09;;;;;;;8.60;5.60;;;;;;;18.50;77.89;100709.87;105880;1259;101430;-85
2023/08/13 04:21:55;;;;;;;6.80;5.50;;;;;;;18.53;77.74;100707.61;105922;1259;99817;-85
2023/08/13 04:24:41;;;;;;;11.20;5.80;;;;;;;18.55;77.88;100702.90;105715;1265;100138;-85
2023/08/13 04:27:27;;;;;;;9.00;6.40;;;;;;;18.59;77.74;100704.61;105851;1265;98023;-85
2023/08/13 04:30:13;;;;;;;7.10;5.30;;;;;;;18.63;77.88;100704.46;105818;1259;97943;-85
2023/08/13 04:32:58;;;;;;;12.10;6.10;;;;;;;18.66;77.94;100703.95;105828;1265;101452;-85
2023/08/13 04:35:51;;;;;;;12.40;6.20;;;;;;;18.69;78.10;100707.66;105850;1262;100352;-84
2023/08/13 04:38:37;;;;;;;11.10;5.90;;;;;;;18.72;78.22;100702.46;105849;1260;99684;-85
2023/08/13 04:41:24;;;;;;;9.40;6.20;;;;;;;18.76;78.51;100706.95;105922;1259;96730;-84
2023/08/13 04:44:10;;;;;;;7.30;5.50;;;;;;;18.79;78.79;100714.89;105836;1259;98527;-85
2023/08/13 04:46:56;;;;;;;8.50;5.30;;;;;;;18.83;79.02;100711.77;105978;1262;101321;-84
2023/08/13 04:49:42;;;;;;;8.90;6.00;;;;;;;18.88;79.65;100704.50;105769;1259;99963;-84
2023/08/13 04:52:28;;;;;;;7.50;5.50;;;;;;;18.94;80.17;100705.67;105777;1259;99113;-85
2023/08/13 04:55:13;;;;;;;6.90;5.50;;;;;;;19.01;79.91;100709.58;105804;1260;97830;-82
2023/08/13 04:58:01;;;;;;;10.20;6.20;;;;;;;19.08;79.94;100711.02;105837;1265;98559;-84
2023/08/13 05:00:47;;;;;;;8.20;5.60;;;;;;;19.15;80.38;100713.17;105818;1264;103158;-84
2023/08/13 05:03:33;;;;;;;8.00;6.60;;;;;;;19.21;80.40;100714.98;105922;1264;100251;-85
2023/08/13 05:06:18;;;;;;;10.40;6.20;;;;;;;19.27;80.55;100711.89;105821;1260;97870;-85
2023/08/13 05:09:04;;;;;;;7.30;6.30;;;;;;;19.32;80.23;100710.70;105865;1259;97974;-84
2023/08/13 05:11:50;;;;;;;8.60;5.60;;;;;;;19.37;80.26;100713.43;105909;1259;95994;-85
2023/08/13 05:14:38;;;;;;;7.30;6.30;;;;;;;19.41;80.13;100706.08;105839;1259;101390;-83
2023/08/13 05:17:25;;;;;;;7.80;6.10;;;;;;;19.45;80.12;100704.80;105855;1264;100649;-84
2023/08/13 05:20:10;;;;;;;7.20;6.50;;;;;;;19.50;80.60;100705.92;105914;1265;97989;-85
2023/08/13 05:22:56;;;;;;;9.90;6.30;;;;;;;19.52;80.37;100704.40;105948;1267;98073;-84
2023/08/13 05:25:41;;;;;;;8.60;6.60;;;;;;;19.55;80.68;100701.73;105894;1263;98052;-85
2023/08/13 05:28:27;;;;;;;11.50;6.60;;;;;;;19.58;80.85;100706.90;105609;1261;101447;-84
2023/08/13 05:31:13;;;;;;;10.10;6.30;;;;;;;19.60;80.63;100706.02;105828;1262;99155;-84
2023/08/13 05:33:59;;;;;;;10.00;7.00;;;;;;;19.63;80.87;100710.53;105842;1260;99147;-83
2023/08/13 05:36:45;;;;;;;11.10;6.30;;;;;;;19.64;81.02;100713.38;105909;1259;98061;-82
2023/08/13 05:39:31;;;;;;;7.30;6.30;;;;;;;19.67;81.29;100719.02;105923;1266;98418;-84
2023/08/13 05:42:16;;;;;;;8.00;6.70;;;;;;;19.71;81.20;100716.22;105746;1264;101343;-82
2023/08/13 05:45:02;;;;;;;7.20;5.60;;;;;;;19.76;81.50;100717.66;105898;1264;100765;-84
2023/08/13 05:47:50;;;;;;;12.10;6.90;;;;;;;19.81;81.62;100716.45;105733;1265;97887;-85
2023/08/13 05:50:38;;;;;;;8.60;6.60;;;;;;;19.88;81.53;100711.70;106030;1260;97873;-84
2023/08/13 05:53:24;;;;;;;6.60;5.90;;;;;;;19.92;81.48;100711.83;105726;1259;97877;-85
2023/08/13 05:56:10;;;;;;;7.60;6.10;;;;;;;19.97;81.05;100712.52;105722;1259;102827;-85
2023/08/13 05:58:55;;;;;;;8.40;6.60;;;;;;;20.02;81.29;100712.06;106060;1260;100133;-85
2023/08/13 06:01:41;;;;;;;6.40;5.80;;;;;;;20.09;81.03;100714.52;105832;1259;97958;-84
2023/08/13 06:04:26;;;;;;;7.30;5.60;;;;;;;20.21;80.84;100717.23;106039;1265;97990;-85
2023/08/13 06:07:13;;;;;;;8.70;6.10;;;;;;;20.32;81.21;100715.05;105857;1260;99556;-85
2023/08/13 06:10:00;;;;;;;7.00;6.30;;;;;;;20.45;81.39;100714.16;105782;1262;101498;-86
2023/08/13 06:12:46;;;;;;;9.10;6.30;;;;;;;20.62;81.54;100716.86;105857;1259;100440;-87
2023/08/13 06:15:32;;;;;;;8.60;5.80;;;;;;;20.79;81.28;100717.78;105754;1263;99937;-86
2023/08/13 06:18:21;;;;;;;7.40;6.00;;;;;;;20.96;81.05;100716.44;105757;1264;97977;-85
2023/08/13 06:21:06;;;;;;;7.20;5.90;;;;;;;21.10;80.50;100716.52;106131;1259;97964;-80
2023/08/13 06:23:52;;;;;;;11.00;6.10;;;;;;;21.26;80.48;100716.30;106306;1260;102457;-81
2023/08/13 06:26:38;;;;;;;7.70;5.40;;;;;;;21.45;80.27;100716.20;106234;1259;99083;-87
2023/08/13 06:29:23;;;;;;;11.70;5.30;;;;;;;21.63;79.86;100717.45;106049;1264;97973;-84
2023/08/13 06:32:09;;;;;;;15.30;6.80;;;;;;;21.79;79.20;100719.10;106037;1259;97979;-83
2023/08/13 06:34:54;;;;;;;7.90;6.20;;;;;;;21.93;79.05;100720.64;105997;1259;97838;-84
2023/08/13 06:37:40;;;;;;;8.70;5.30;;;;;;;22.07;78.22;100716.25;105973;1261;101396;-83
2023/08/13 06:40:26;;;;;;;10.90;5.90;;;;;;;22.23;78.00;100717.63;106222;1264;99311;-81
2023/08/13 06:43:12;;;;;;;7.60;5.30;;;;;;;22.40;77.13;100717.11;106090;1260;98585;-85
2023/08/13 06:46:00;;;;;;;7.70;5.70;;;;;;;22.58;77.05;100720.64;106042;1258;95871;-83
2023/08/13 06:48:45;;;;;;;7.00;5.90;;;;;;;22.72;76.63;100717.36;105862;1266;97928;-83
2023/08/13 06:51:31;;;;;;;8.00;5.60;;;;;;;22.84;76.62;100717.99;106231;1264;101440;-87
2023/08/13 06:54:54;;;;;;;9.50;5.00;;;;;;;22.98;76.31;100718.56;106657;1260;99183;-93
2023/08/13 06:57:40;;;;;;;5.70;5.10;;;;;;;23.13;76.07;100719.73;106300;1260;98059;-88
2023/08/13 07:00:26;;;;;;;9.30;5.60;;;;;;;23.26;75.87;100720.83;106125;1266;98538;-82
2023/08/13 07:03:11;;;;;;;10.00;5.20;;;;;;;23.39;75.37;100721.17;105965;1264;99752;-84
2023/08/13 07:05:57;;;;;;;8.10;4.90;;;;;;;23.50;74.55;100716.96;106084;1259;103502;-83
2023/08/13 07:08:43;;;;;;;8.20;4.40;;;;;;;23.61;74.09;100720.98;105886;1259;101278;-82
2023/08/13 07:11:29;;;;;;;5.40;4.80;;;;;;;23.70;73.95;100718.38;105959;1264;97888;-85
2023/08/13 07:14:15;;;;;;;6.70;4.80;;;;;;;23.76;73.56;100720.25;106088;1259;99239;-83
2023/08/13 07:17:01;;;;;;;5.70;4.80;;;;;;;23.86;73.21;100718.46;105864;1261;98630;-83
2023/08/13 07:19:46;;;;;;;8.30;5.50;;;;;;;24.01;73.43;100719.68;106125;1259;109981;-83
2023/08/13 07:22:32;;;;;;;10.10;4.80;;;;;;;24.03;72.34;100724.27;106028;1260;99243;-85
2023/08/13 07:25:17;;;;;;;8.00;5.20;;;;;;;24.02;71.43;100727.31;106038;1265;98587;-82
2023/08/13 07:28:06;;;;;;;8.70;5.10;;;;;;;24.01;71.00;100729.50;106181;1263;98515;-82
2023/08/13 07:30:51;;;;;;;6.30;4.90;;;;;;;24.08;72.11;100731.98;105993;1260;98400;-84
2023/08/13 07:33:37;;;;;;;6.50;5.40;;;;;;;24.18;72.06;100734.41;105968;1259;102025;-84
2023/08/13 07:36:22;;;;;;;5.30;4.20;;;;;;;24.26;71.06;100733.42;105811;1263;100440;-85
2023/08/13 07:39:09;;;;;;;10.00;5.10;;;;;;;24.34;71.32;100730.69;106164;1259;97936;-83
2023/08/13 07:41:54;;;;;;;5.70;4.60;;;;;;;24.42;70.65;100730.52;106080;1260;97874;-84
2023/08/13 07:44:40;;;;;;;5.30;4.50;;;;;;;24.50;70.74;100731.83;105858;1259;97996;-84
2023/08/13 07:47:25;;;;;;;8.80;4.60;;;;;;;24.56;70.48;100729.47;105673;1259;101431;-83
2023/08/13 07:50:11;;;;;;;6.60;5.40;;;;;;;24.63;70.59;100726.89;105632;1259;99153;-82
2023/08/13 07:52:57;;;;;;;7.50;4.60;;;;;;;24.71;70.46;100726.44;105677;1258;98841;-85
2023/08/13 07:55:43;;;;;;;7.10;4.70;;;;;;;24.81;70.30;100725.80;106084;1260;97960;-83
2023/08/13 07:58:28;;;;;;;8.80;4.70;;;;;;;24.89;70.08;100728.20;105623;1259;98802;-84
2023/08/13 08:01:14;;;;;;;8.00;5.30;;;;;;;24.97;69.88;100733.15;105744;1259;102752;-83
2023/08/13 08:03:59;;;;;;;6.20;5.10;;;;;;;25.02;69.59;100732.42;106030;1259;99652;-83
2023/08/13 08:06:45;;;;;;;6.30;4.90;;;;;;;25.09;70.38;100733.39;105726;1263;97986;-84
2023/08/13 08:09:30;;;;;;;13.90;5.10;;;;;;;25.17;69.73;100736.66;106004;1259;98251;-83
2023/08/13 08:12:15;;;;;;;9.50;4.90;;;;;;;25.24;70.33;100740.31;105713;1262;98411;-83
2023/08/13 08:15:02;;;;;;;7.70;5.10;;;;;;;25.33;69.65;100743.07;105660;1264;102103;-83
2023/08/13 08:17:48;;;;;;;9.40;5.10;;;;;;;25.39;69.60;100746.34;105679;1260;99173;-82
2023/08/13 08:20:33;;;;;;;5.70;4.70;;;;;;;25.46;69.54;100751.80;105601;1260;97917;-84
2023/08/13 08:23:19;;;;;;;5.40;4.90;;;;;;;25.54;69.19;100747.95;105682;1262;98102;-84
2023/08/13 08:26:04;;;;;;;5.70;4.50;;;;;;;25.60;68.35;100747.86;105823;1260;97873;-81
2023/08/13 08:28:50;;;;;;;7.70;5.00;;;;;;;25.64;68.22;100752.45;106063;1259;109999;-83
2023/08/13 08:31:36;;;;;;;7.50;5.20;;;;;;;25.68;67.90;100758.20;105735;1265;99813;-83
2023/08/13 08:34:21;;;;;;;7.20;4.80;;;;;;;25.72;67.36;100751.86;105921;1259;98542;-82
2023/08/13 08:37:10;;;;;;;6.70;5.00;;;;;;;25.77;67.84;100748.92;105898;1259;97960;-82
2023/08/13 08:39:55;;;;;;;8.80;5.20;;;;;;;25.84;67.17;100750.69;105921;1260;97977;-82
2023/08/13 08:42:42;;;;;;;6.50;4.80;;;;;;;25.87;67.40;100747.09;105949;1259;102667;-82
2023/08/13 08:45:28;;;;;;;7.50;5.00;;;;;;;25.93;66.93;100743.11;106056;1259;99178;-83
2023/08/13 08:48:14;;;;;;;7.00;4.90;;;;;;;25.98;66.71;100741.81;106043;1265;99092;-81
2023/08/13 08:51:00;;;;;;;6.80;4.60;;;;;;;26.04;66.64;100737.88;106432;1259;97910;-81
2023/08/13 08:53:48;;;;;;;7.90;4.60;;;;;;;26.11;66.65;100734.60;106403;1259;98393;-82
2023/08/13 08:56:34;;;;;;;5.70;4.90;;;;;;;26.17;66.58;100730.33;106500;1259;102158;-82
2023/08/13 08:59:20;;;;;;;7.50;4.90;;;;;;;26.25;66.48;100730.48;106584;1260;99198;-82
2023/08/13 09:02:05;;;;;;;5.70;5.10;;;;;;;26.34;66.46;100730.19;106432;1259;97988;-81
2023/08/13 09:04:51;;;;;;;7.70;4.70;;;;;;;26.41;65.64;100735.46;106564;1259;97881;-81
2023/08/13 09:07:39;;;;;;;6.50;4.60;;;;;;;26.48;65.56;100736.46;106524;1259;98504;-81
2023/08/13 09:10:24;;;;;;;6.60;4.70;;;;;;;26.56;65.62;100734.68;106446;1259;101409;-82
2023/08/13 09:13:10;;;;;;;7.10;4.90;;;;;;;26.64;64.92;100734.77;106472;1264;99257;-82
2023/08/13 09:15:56;;;;;;;13.30;4.70;;;;;;;26.73;64.88;100733.98;106331;1259;98509;-81
2023/08/13 09:18:42;;;;;;;6.10;4.60;;;;;;;26.87;65.48;100735.23;106480;1259;97849;-82
2023/08/13 09:21:29;;;;;;;6.70;5.00;;;;;;;26.99;64.83;100734.38;106643;1263;96505;-81
2023/08/13 09:24:14;;;;;;;7.80;4.70;;;;;;;27.11;64.60;100734.13;106586;1259;127773;-81
2023/08/13 09:27:01;;;;;;;4.80;4.30;;;;;;;27.22;64.29;100734.61;106530;1259;99080;-82
2023/08/13 09:29:52;;;;;;;8.90;5.10;;;;;;;27.32;63.63;100735.05;106625;1263;98596;-81
2023/08/13 09:32:38;;;;;;;5.20;4.20;;;;;;;27.40;62.70;100730.66;106530;1259;98051;-82
2023/08/13 09:35:24;;;;;;;8.70;4.50;;;;;;;27.45;62.22;100734.13;106436;1259;97974;-82
2023/08/13 09:38:10;;;;;;;4.70;4.30;;;;;;;27.43;61.59;100735.86;106411;1262;101461;-82
2023/08/13 09:40:56;;;;;;;9.10;4.70;;;;;;;27.46;62.21;100732.95;106507;1259;99308;-82
2023/08/13 09:43:44;;;;;;;5.60;4.60;;;;;;;27.48;62.35;100731.33;106588;1259;98138;-82
2023/08/13 09:46:31;;;;;;;5.70;4.70;;;;;;;27.47;62.02;100730.14;106557;1263;97964;-82
2023/08/13 09:49:17;;;;;;;7.10;4.40;;;;;;;27.45;61.77;100731.91;106481;1260;98418;-82
2023/08/13 09:52:08;;;;;;;5.60;4.50;;;;;;;27.44;62.29;100733.58;106430;1259;101419;-80
2023/08/13 09:55:06;;;;;;;9.00;5.70;;;;;;;27.45;61.78;100735.34;106703;1259;107922;-81
2023/08/13 09:57:53;;;;;;;6.30;4.40;;;;;;;27.42;62.14;100740.61;106566;1259;97860;-81
2023/08/13 10:00:39;;;;;;;7.30;5.40;;;;;;;27.43;62.14;100743.84;106640;1263;97977;-80
2023/08/13 10:03:24;;;;;;;6.80;4.90;;;;;;;27.44;61.93;100746.19;106487;1263;96530;-82
2023/08/13 10:06:11;;;;;;;9.10;4.90;;;;;;;27.44;61.59;100750.52;106623;1263;101358;-81
2023/08/13 10:08:56;;;;;;;5.50;4.80;;;;;;;27.48;61.85;100751.75;106653;1259;99745;-81
2023/08/13 10:11:42;;;;;;;10.00;5.10;;;;;;;27.52;62.11;100752.80;106581;1259;99142;-81
2023/08/13 10:14:28;;;;;;;8.80;6.20;;;;;;;27.60;62.60;100750.84;106598;1259;97968;-81
2023/08/13 10:17:17;;;;;;;8.70;5.50;;;;;;;27.69;62.46;100744.14;106662;1259;98750;-81
2023/08/13 10:20:05;;;;;;;9.20;4.80;;;;;;;27.78;62.55;100738.35;106715;1259;102034;-81
2023/08/13 10:22:54;;;;;;;9.60;6.10;;;;;;;27.88;63.74;100738.09;106489;1259;99896;-81
2023/08/13 10:25:39;;;;;;;8.70;5.80;;;;;;;27.98;63.17;100739.80;106407;1260;98571;-83
2023/08/13 10:28:33;;;;;;;9.00;4.50;;;;;;;28.03;62.08;100739.02;106457;1259;97976;-81
2023/08/13 10:31:24;;;;;;;6.30;5.00;;;;;;;28.11;62.74;100740.36;106479;1259;98481;-81
2023/08/13 10:34:12;;;;;;;6.40;3.90;;;;;;;28.17;61.71;100743.91;106400;1262;101316;-82
2023/08/13 10:36:58;;;;;;;5.60;4.50;;;;;;;28.26;62.30;100743.27;106443;1264;99068;-82
2023/08/13 10:39:46;;;;;;;10.10;4.00;;;;;;;28.32;61.40;100742.07;106375;1259;98400;-81
2023/08/13 10:42:36;;;;;;;5.90;4.70;;;;;;;28.40;61.65;100741.83;106422;1263;97910;-81
2023/08/13 10:45:28;;;;;;;6.80;4.20;;;;;;;28.46;60.45;100741.83;106479;1259;98071;-81
2023/08/13 10:48:26;;;;;;;6.80;3.30;;;;;;;28.50;60.11;100744.29;106496;1259;102175;-81
2023/08/13 10:51:11;;;;;;;8.50;3.60;;;;;;;28.54;58.90;100741.70;106468;1259;99799;-82
2023/08/13 10:53:58;;;;;;;3.60;3.20;;;;;;;28.52;57.86;100741.94;106335;1264;97951;-82
2023/08/13 10:56:45;;;;;;;5.50;4.30;;;;;;;28.48;57.30;100744.39;106430;1259;97903;-82
2023/08/13 10:59:32;;;;;;;5.10;4.60;;;;;;;28.47;57.70;100740.88;106480;1263;96643;-82
2023/08/13 11:02:21;;;;;;;4.50;3.50;;;;;;;28.52;57.73;100743.61;106653;1259;102198;-82
2023/08/13 11:05:07;;;;;;;5.20;3.20;;;;;;;28.53;56.73;100746.57;106623;1259;100390;-81
2023/08/13 11:07:53;;;;;;;4.20;3.50;;;;;;;28.51;56.43;100743.95;106512;1263;99558;-82
2023/08/13 11:10:39;;;;;;;3.60;3.30;;;;;;;28.50;56.77;100745.23;106379;1259;98684;-82
2023/08/13 11:13:24;;;;;;;4.40;3.40;;;;;;;28.51;56.93;100741.52;106386;1259;95958;-82
2023/08/13 11:16:10;;;;;;;4.70;3.10;;;;;;;28.54;56.97;100738.95;106598;1259;101430;-81
2023/08/13 11:18:56;;;;;;;3.60;3.20;;;;;;;28.54;57.02;100740.38;106389;1259;100097;-82
2023/08/13 11:21:43;;;;;;;3.20;2.80;;;;;;;28.60;57.11;100739.96;106478;1259;99074;-82
2023/08/13 11:24:32;;;;;;;6.40;3.10;;;;;;;28.64;56.68;100741.55;106480;1263;97859;-82
2023/08/13 11:27:17;;;;;;;7.10;3.20;;;;;;;28.65;55.95;100740.48;106467;1259;98485;-82
2023/08/13 11:30:04;;;;;;;5.00;2.90;;;;;;;28.61;55.28;100742.76;106509;1263;102184;-81
2023/08/13 11:32:49;;;;;;;4.40;2.90;;;;;;;28.57;55.80;100736.21;106511;1262;100433;-83
2023/08/13 11:35:34;;;;;;;5.10;2.80;;;;;;;28.60;55.54;100735.48;106492;1259;107581;-82
2023/08/13 11:38:20;;;;;;;3.40;2.90;;;;;;;28.67;55.53;100736.75;106449;1259;96517;-82
2023/08/13 11:41:13;;;;;;;4.10;2.80;;;;;;;28.76;55.51;100738.23;106390;1259;97975;-80
2023/08/13 11:44:01;;;;;;;8.20;3.00;;;;;;;28.86;55.37;100737.10;106422;1264;101348;-81
2023/08/13 11:46:54;;;;;;;4.40;3.10;;;;;;;28.94;55.56;100740.38;106315;1259;99178;-81
2023/08/13 11:49:42;;;;;;;7.90;2.90;;;;;;;29.01;54.82;100739.80;106386;1259;97899;-82
2023/08/13 11:52:27;;;;;;;4.30;2.60;;;;;;;29.03;54.85;100736.84;106475;1258;97963;-82
2023/08/13 11:55:13;;;;;;;6.30;2.70;;;;;;;29.15;55.21;100742.09;106429;1259;98437;-82
2023/08/13 11:57:59;;;;;;;5.20;3.40;;;;;;;29.29;55.28;100741.21;106417;1259;103136;-82
2023/08/13 12:00:47;;;;;;;3.90;3.30;;;;;;;29.37;54.58;100738.39;106510;1260;100405;-82
2023/08/13 12:03:41;;;;;;;3.30;2.90;;;;;;;29.40;55.41;100736.73;106352;1260;97964;-83
2023/08/13 12:06:26;;;;;;;6.70;2.90;;;;;;;29.44;54.95;100736.20;106382;1259;97896;-80
2023/08/13 12:09:13;;;;;;;4.90;2.80;;;;;;;29.41;54.07;100737.09;106346;1259;98573;-81
2023/08/13 12:11:58;;;;;;;3.50;3.20;;;;;;;29.35;53.54;100739.60;106507;1259;102588;-81
2023/08/13 12:14:45;;;;;;;4.10;3.20;;;;;;;29.38;54.10;100741.13;106446;1259;99090;-82
2023/08/13 12:17:30;;;;;;;3.10;2.80;;;;;;;29.46;54.02;100744.39;106576;1259;97909;-82
2023/08/13 12:20:15;;;;;;;4.50;2.80;;;;;;;29.54;53.90;100743.60;106557;1262;98080;-81
2023/08/13 12:23:01;;;;;;;3.30;2.80;;;;;;;29.66;53.77;100746.33;106430;1260;97893;-82
2023/08/13 12:25:47;;;;;;;6.80;3.90;;;;;;;29.64;52.65;100750.87;106506;1260;101482;-81
2023/08/13 12:28:33;;;;;;;7.20;3.70;;;;;;;29.53;52.59;100747.98;106467;1259;99230;-82
2023/08/13 12:31:20;;;;;;;5.80;4.70;;;;;;;29.45;52.92;100744.94;106484;1265;106306;-82
2023/08/13 12:34:05;;;;;;;5.30;3.40;;;;;;;29.43;53.43;100740.14;106466;1259;97941;-83
2023/08/13 12:36:50;;;;;;;4.50;2.90;;;;;;;29.53;54.20;100746.83;106537;1259;96725;-83
2023/08/13 12:39:36;;;;;;;6.90;3.30;;;;;;;29.63;54.26;100745.67;106506;1259;101468;-82
2023/08/13 12:42:21;;;;;;;3.30;2.90;;;;;;;29.67;54.97;100743.02;106586;1264;99145;-82
2023/08/13 12:45:07;;;;;;;5.20;2.90;;;;;;;29.65;54.89;100745.95;106649;1259;98730;-82